sensor_id;sensor_type;location;lat;lon;timestamp;P1;durP1;ratioP1;P2;durP2;ratioP2
65552;SDS011;52465;51.560;14.368;2023-04-07T00:01:19;10.00;;;9.10;;
65552;SDS011;52465;51.560;14.368;2023-04-07T00:03:45;10.38;;;9.48;;
65552;SDS011;52465;51.560;14.368;2023-04-07T00:06:11;10.70;;;9.80;;
65552;SDS011;52465;51.560;14.368;2023-04-07T00:08:37;10.77;;;9.88;;
65552;SDS011;52465;51.560;14.368;2023-04-07T00:11:02;9.85;;;9.13;;
65552;SDS011;52465;51.560;14.368;2023-04-07T00:13:28;10.93;;;9.90;;
65552;SDS011;52465;51.560;14.368;2023-04-07T00:15:54;10.65;;;9.75;;
65552;SDS011;52465;51.560;14.368;2023-04-07T00:18:19;10.02;;;9.15;;
65552;SDS011;52465;51.560;14.368;2023-04-07T00:20:52;11.35;;;9.90;;
65552;SDS011;52465;51.560;14.368;2023-04-07T00:23:18;11.27;;;10.18;;
65552;SDS011;52465;51.560;14.368;2023-04-07T00:25:43;10.38;;;9.48;;
65552;SDS011;52465;51.560;14.368;2023-04-07T00:28:09;11.02;;;9.95;;
65552;SDS011;52465;51.560;14.368;2023-04-07T00:30:35;10.18;;;9.27;;
65552;SDS011;52465;51.560;14.368;2023-04-07T00:33:00;10.88;;;9.85;;
65552;SDS011;52465;51.560;14.368;2023-04-07T00:35:29;11.13;;;9.70;;
65552;SDS011;52465;51.560;14.368;2023-04-07T00:40:19;10.52;;;9.57;;
65552;SDS011;52465;51.560;14.368;2023-04-07T00:42:46;10.32;;;9.50;;
65552;SDS011;52465;51.560;14.368;2023-04-07T00:45:11;10.63;;;9.73;;
65552;SDS011;52465;51.560;14.368;2023-04-07T00:47:36;11.00;;;9.90;;
65552;SDS011;52465;51.560;14.368;2023-04-07T00:50:03;12.68;;;10.15;;
65552;SDS011;52465;51.560;14.368;2023-04-07T00:52:31;11.15;;;10.05;;
65552;SDS011;52465;51.560;14.368;2023-04-07T00:54:58;11.55;;;10.55;;
65552;SDS011;52465;51.560;14.368;2023-04-07T00:57:25;11.35;;;10.35;;
65552;SDS011;52465;51.560;14.368;2023-04-07T00:59:51;11.95;;;10.65;;
65552;SDS011;52465;51.560;14.368;2023-04-07T01:02:34;10.63;;;9.63;;
65552;SDS011;52465;51.560;14.368;2023-04-07T01:07:45;11.25;;;10.23;;
65552;SDS011;52465;51.560;14.368;2023-04-07T01:10:18;10.85;;;9.80;;
65552;SDS011;52465;51.560;14.368;2023-04-07T01:18:06;11.10;;;10.02;;
65552;SDS011;52465;51.560;14.368;2023-04-07T01:20:37;11.70;;;10.70;;
65552;SDS011;52465;51.560;14.368;2023-04-07T01:23:06;10.80;;;9.80;;
65552;SDS011;52465;51.560;14.368;2023-04-07T01:25:53;11.25;;;10.18;;
65552;SDS011;52465;51.560;14.368;2023-04-07T01:28:40;11.48;;;10.38;;
65552;SDS011;52465;51.560;14.368;2023-04-07T01:31:07;11.18;;;10.18;;
65552;SDS011;52465;51.560;14.368;2023-04-07T01:33:34;11.10;;;10.20;;
65552;SDS011;52465;51.560;14.368;2023-04-07T01:36:01;11.52;;;10.38;;
65552;SDS011;52465;51.560;14.368;2023-04-07T01:38:29;11.10;;;10.10;;
65552;SDS011;52465;51.560;14.368;2023-04-07T01:40:55;11.02;;;10.02;;
65552;SDS011;52465;51.560;14.368;2023-04-07T01:43:23;11.15;;;10.20;;
65552;SDS011;52465;51.560;14.368;2023-04-07T01:45:50;10.35;;;9.45;;
65552;SDS011;52465;51.560;14.368;2023-04-07T01:48:16;11.13;;;10.02;;
65552;SDS011;52465;51.560;14.368;2023-04-07T01:50:43;10.70;;;9.63;;
65552;SDS011;52465;51.560;14.368;2023-04-07T01:53:16;12.07;;;10.38;;
65552;SDS011;52465;51.560;14.368;2023-04-07T01:55:42;10.82;;;9.90;;
65552;SDS011;52465;51.560;14.368;2023-04-07T01:58:09;11.55;;;10.38;;
65552;SDS011;52465;51.560;14.368;2023-04-07T02:03:20;11.32;;;10.23;;
65552;SDS011;52465;51.560;14.368;2023-04-07T02:05:56;12.05;;;10.75;;
65552;SDS011;52465;51.560;14.368;2023-04-07T02:08:28;11.07;;;9.98;;
65552;SDS011;52465;51.560;14.368;2023-04-07T02:10:56;11.48;;;10.50;;
65552;SDS011;52465;51.560;14.368;2023-04-07T02:13:30;11.15;;;10.27;;
65552;SDS011;52465;51.560;14.368;2023-04-07T02:15:58;11.00;;;10.02;;
65552;SDS011;52465;51.560;14.368;2023-04-07T02:18:25;11.30;;;10.40;;
65552;SDS011;52465;51.560;14.368;2023-04-07T02:20:54;11.07;;;10.00;;
65552;SDS011;52465;51.560;14.368;2023-04-07T02:23:24;11.05;;;10.05;;
65552;SDS011;52465;51.560;14.368;2023-04-07T02:25:50;11.65;;;10.57;;
65552;SDS011;52465;51.560;14.368;2023-04-07T02:28:15;11.68;;;10.48;;
65552;SDS011;52465;51.560;14.368;2023-04-07T02:30:41;11.15;;;10.15;;
65552;SDS011;52465;51.560;14.368;2023-04-07T02:33:06;10.75;;;9.70;;
65552;SDS011;52465;51.560;14.368;2023-04-07T02:35:32;11.32;;;10.18;;
65552;SDS011;52465;51.560;14.368;2023-04-07T02:40:37;12.10;;;10.73;;
65552;SDS011;52465;51.560;14.368;2023-04-07T02:43:03;11.25;;;10.30;;
65552;SDS011;52465;51.560;14.368;2023-04-07T02:45:29;10.95;;;9.88;;
65552;SDS011;52465;51.560;14.368;2023-04-07T02:47:55;11.10;;;10.10;;
65552;SDS011;52465;51.560;14.368;2023-04-07T02:50:20;11.40;;;10.40;;
65552;SDS011;52465;51.560;14.368;2023-04-07T02:52:46;11.10;;;10.07;;
65552;SDS011;52465;51.560;14.368;2023-04-07T03:04:53;11.77;;;10.57;;
65552;SDS011;52465;51.560;14.368;2023-04-07T03:07:19;11.40;;;10.18;;
65552;SDS011;52465;51.560;14.368;2023-04-07T03:09:45;11.82;;;10.68;;
65552;SDS011;52465;51.560;14.368;2023-04-07T03:12:10;11.25;;;10.20;;
65552;SDS011;52465;51.560;14.368;2023-04-07T03:14:37;11.43;;;10.43;;
65552;SDS011;52465;51.560;14.368;2023-04-07T03:17:05;11.30;;;10.18;;
65552;SDS011;52465;51.560;14.368;2023-04-07T03:19:33;11.73;;;10.57;;
65552;SDS011;52465;51.560;14.368;2023-04-07T03:22:02;11.48;;;10.48;;
65552;SDS011;52465;51.560;14.368;2023-04-07T03:24:28;12.43;;;10.85;;
65552;SDS011;52465;51.560;14.368;2023-04-07T03:26:54;11.52;;;10.45;;
65552;SDS011;52465;51.560;14.368;2023-04-07T03:29:20;11.35;;;10.25;;
65552;SDS011;52465;51.560;14.368;2023-04-07T03:31:45;11.07;;;9.98;;
65552;SDS011;52465;51.560;14.368;2023-04-07T03:34:11;10.82;;;9.85;;
65552;SDS011;52465;51.560;14.368;2023-04-07T03:36:37;12.23;;;10.98;;
65552;SDS011;52465;51.560;14.368;2023-04-07T03:39:02;12.40;;;10.98;;
65552;SDS011;52465;51.560;14.368;2023-04-07T03:41:28;12.05;;;10.27;;
65552;SDS011;52465;51.560;14.368;2023-04-07T03:43:55;11.45;;;10.35;;
65552;SDS011;52465;51.560;14.368;2023-04-07T03:46:21;11.57;;;10.25;;
65552;SDS011;52465;51.560;14.368;2023-04-07T03:48:50;11.80;;;10.77;;
65552;SDS011;52465;51.560;14.368;2023-04-07T03:51:16;11.80;;;10.73;;
65552;SDS011;52465;51.560;14.368;2023-04-07T03:53:46;12.23;;;10.57;;
65552;SDS011;52465;51.560;14.368;2023-04-07T04:05:54;13.05;;;11.57;;
65552;SDS011;52465;51.560;14.368;2023-04-07T04:08:19;12.18;;;10.82;;
65552;SDS011;52465;51.560;14.368;2023-04-07T04:10:45;11.40;;;10.32;;
65552;SDS011;52465;51.560;14.368;2023-04-07T04:13:11;13.02;;;11.30;;
65552;SDS011;52465;51.560;14.368;2023-04-07T04:15:37;11.82;;;10.80;;
65552;SDS011;52465;51.560;14.368;2023-04-07T04:18:02;11.88;;;10.32;;
65552;SDS011;52465;51.560;14.368;2023-04-07T04:20:28;11.40;;;10.27;;
65552;SDS011;52465;51.560;14.368;2023-04-07T04:22:54;12.55;;;11.27;;
65552;SDS011;52465;51.560;14.368;2023-04-07T04:35:25;12.00;;;10.90;;
65552;SDS011;52465;51.560;14.368;2023-04-07T04:37:51;12.45;;;11.10;;
65552;SDS011;52465;51.560;14.368;2023-04-07T04:40:17;12.43;;;11.13;;
65552;SDS011;52465;51.560;14.368;2023-04-07T04:42:42;14.60;;;11.98;;
65552;SDS011;52465;51.560;14.368;2023-04-07T04:45:09;12.45;;;11.13;;
65552;SDS011;52465;51.560;14.368;2023-04-07T04:47:35;12.10;;;10.45;;
65552;SDS011;52465;51.560;14.368;2023-04-07T04:50:03;12.32;;;10.40;;
65552;SDS011;52465;51.560;14.368;2023-04-07T04:52:29;12.27;;;11.10;;
65552;SDS011;52465;51.560;14.368;2023-04-07T04:54:55;11.98;;;10.80;;
65552;SDS011;52465;51.560;14.368;2023-04-07T04:57:21;11.48;;;10.38;;
65552;SDS011;52465;51.560;14.368;2023-04-07T04:59:46;11.93;;;10.88;;
65552;SDS011;52465;51.560;14.368;2023-04-07T05:02:12;11.93;;;10.82;;
65552;SDS011;52465;51.560;14.368;2023-04-07T05:04:37;11.80;;;10.60;;
65552;SDS011;52465;51.560;14.368;2023-04-07T05:07:03;12.15;;;10.80;;
65552;SDS011;52465;51.560;14.368;2023-04-07T05:09:28;11.93;;;10.80;;
65552;SDS011;52465;51.560;14.368;2023-04-07T05:11:54;12.60;;;11.15;;
65552;SDS011;52465;51.560;14.368;2023-04-07T05:14:19;12.02;;;10.75;;
65552;SDS011;52465;51.560;14.368;2023-04-07T05:16:45;12.60;;;11.30;;
65552;SDS011;52465;51.560;14.368;2023-04-07T05:19:10;12.20;;;11.00;;
65552;SDS011;52465;51.560;14.368;2023-04-07T05:21:36;11.50;;;10.38;;
65552;SDS011;52465;51.560;14.368;2023-04-07T05:24:01;12.07;;;10.80;;
65552;SDS011;52465;51.560;14.368;2023-04-07T05:26:27;11.95;;;10.88;;
65552;SDS011;52465;51.560;14.368;2023-04-07T05:28:55;12.07;;;10.95;;
65552;SDS011;52465;51.560;14.368;2023-04-07T05:31:21;11.93;;;10.82;;
65552;SDS011;52465;51.560;14.368;2023-04-07T05:33:46;11.10;;;10.10;;
65552;SDS011;52465;51.560;14.368;2023-04-07T05:36:12;12.63;;;11.43;;
65552;SDS011;52465;51.560;14.368;2023-04-07T05:38:41;11.63;;;10.63;;
65552;SDS011;52465;51.560;14.368;2023-04-07T05:41:06;12.00;;;10.80;;
65552;SDS011;52465;51.560;14.368;2023-04-07T05:43:32;11.23;;;10.32;;
65552;SDS011;52465;51.560;14.368;2023-04-07T05:51:33;13.27;;;11.87;;
65552;SDS011;52465;51.560;14.368;2023-04-07T05:54:00;11.73;;;10.52;;
65552;SDS011;52465;51.560;14.368;2023-04-07T05:56:28;12.38;;;11.20;;
65552;SDS011;52465;51.560;14.368;2023-04-07T05:58:53;11.90;;;10.80;;
65552;SDS011;52465;51.560;14.368;2023-04-07T06:01:22;12.05;;;10.95;;
65552;SDS011;52465;51.560;14.368;2023-04-07T06:03:48;12.05;;;10.95;;
65552;SDS011;52465;51.560;14.368;2023-04-07T06:06:14;11.13;;;10.13;;
65552;SDS011;52465;51.560;14.368;2023-04-07T06:08:40;11.48;;;10.38;;
65552;SDS011;52465;51.560;14.368;2023-04-07T06:11:08;11.65;;;10.60;;
65552;SDS011;52465;51.560;14.368;2023-04-07T06:13:35;11.40;;;10.20;;
65552;SDS011;52465;51.560;14.368;2023-04-07T06:16:03;11.35;;;10.32;;
65552;SDS011;52465;51.560;14.368;2023-04-07T06:18:29;11.75;;;10.57;;
65552;SDS011;52465;51.560;14.368;2023-04-07T06:20:54;12.68;;;10.85;;
65552;SDS011;52465;51.560;14.368;2023-04-07T06:23:20;11.35;;;10.20;;
65552;SDS011;52465;51.560;14.368;2023-04-07T06:25:46;12.45;;;11.20;;
65552;SDS011;52465;51.560;14.368;2023-04-07T06:28:16;11.20;;;10.23;;
65552;SDS011;52465;51.560;14.368;2023-04-07T06:30:43;11.25;;;10.15;;
65552;SDS011;52465;51.560;14.368;2023-04-07T06:33:11;11.38;;;10.35;;
65552;SDS011;52465;51.560;14.368;2023-04-07T06:35:38;11.10;;;10.15;;
65552;SDS011;52465;51.560;14.368;2023-04-07T06:38:12;12.05;;;10.95;;
65552;SDS011;52465;51.560;14.368;2023-04-07T06:40:38;11.20;;;10.23;;
65552;SDS011;52465;51.560;14.368;2023-04-07T06:43:03;11.68;;;10.70;;
65552;SDS011;52465;51.560;14.368;2023-04-07T06:45:29;12.18;;;11.07;;
65552;SDS011;52465;51.560;14.368;2023-04-07T06:47:55;11.40;;;10.38;;
65552;SDS011;52465;51.560;14.368;2023-04-07T06:50:23;11.30;;;10.25;;
65552;SDS011;52465;51.560;14.368;2023-04-07T06:52:50;11.52;;;10.35;;
65552;SDS011;52465;51.560;14.368;2023-04-07T06:55:18;10.80;;;9.90;;
65552;SDS011;52465;51.560;14.368;2023-04-07T06:57:46;12.35;;;9.98;;
65552;SDS011;52465;51.560;14.368;2023-04-07T07:00:13;11.35;;;10.35;;
65552;SDS011;52465;51.560;14.368;2023-04-07T07:02:40;11.35;;;10.32;;
65552;SDS011;52465;51.560;14.368;2023-04-07T07:05:05;11.90;;;10.75;;
65552;SDS011;52465;51.560;14.368;2023-04-07T07:07:32;12.35;;;11.20;;
65552;SDS011;52465;51.560;14.368;2023-04-07T07:09:57;11.25;;;10.25;;
65552;SDS011;52465;51.560;14.368;2023-04-07T07:12:23;11.60;;;10.60;;
65552;SDS011;52465;51.560;14.368;2023-04-07T07:14:48;11.45;;;10.45;;
65552;SDS011;52465;51.560;14.368;2023-04-07T07:17:14;11.90;;;10.70;;
65552;SDS011;52465;51.560;14.368;2023-04-07T07:19:43;11.75;;;10.77;;
65552;SDS011;52465;51.560;14.368;2023-04-07T07:22:09;11.85;;;10.68;;
65552;SDS011;52465;51.560;14.368;2023-04-07T07:24:35;11.73;;;10.65;;
65552;SDS011;52465;51.560;14.368;2023-04-07T07:27:00;13.50;;;11.40;;
65552;SDS011;52465;51.560;14.368;2023-04-07T07:29:27;11.98;;;10.88;;
65552;SDS011;52465;51.560;14.368;2023-04-07T07:31:55;12.23;;;10.93;;
65552;SDS011;52465;51.560;14.368;2023-04-07T07:34:20;11.88;;;10.90;;
65552;SDS011;52465;51.560;14.368;2023-04-07T07:36:46;12.30;;;11.07;;
65552;SDS011;52465;51.560;14.368;2023-04-07T07:39:12;11.70;;;10.55;;
65552;SDS011;52465;51.560;14.368;2023-04-07T07:41:38;12.20;;;11.00;;
65552;SDS011;52465;51.560;14.368;2023-04-07T07:44:03;11.82;;;10.90;;
65552;SDS011;52465;51.560;14.368;2023-04-07T07:46:29;11.95;;;10.88;;
65552;SDS011;52465;51.560;14.368;2023-04-07T07:49:33;11.50;;;10.48;;
65552;SDS011;52465;51.560;14.368;2023-04-07T07:51:59;12.23;;;11.02;;
65552;SDS011;52465;51.560;14.368;2023-04-07T07:54:25;12.00;;;11.00;;
65552;SDS011;52465;51.560;14.368;2023-04-07T07:56:53;11.80;;;10.70;;
65552;SDS011;52465;51.560;14.368;2023-04-07T07:59:19;11.23;;;10.23;;
65552;SDS011;52465;51.560;14.368;2023-04-07T08:01:45;12.30;;;11.20;;
65552;SDS011;52465;51.560;14.368;2023-04-07T08:04:11;12.15;;;11.00;;
65552;SDS011;52465;51.560;14.368;2023-04-07T08:06:37;11.48;;;10.40;;
65552;SDS011;52465;51.560;14.368;2023-04-07T08:09:02;11.55;;;10.43;;
65552;SDS011;52465;51.560;14.368;2023-04-07T08:11:28;11.63;;;10.57;;
65552;SDS011;52465;51.560;14.368;2023-04-07T08:13:53;11.52;;;10.52;;
65552;SDS011;52465;51.560;14.368;2023-04-07T08:16:19;10.98;;;9.98;;
65552;SDS011;52465;51.560;14.368;2023-04-07T08:18:46;12.32;;;11.02;;
65552;SDS011;52465;51.560;14.368;2023-04-07T08:21:11;12.15;;;11.05;;
65552;SDS011;52465;51.560;14.368;2023-04-07T08:23:37;12.50;;;11.35;;
65552;SDS011;52465;51.560;14.368;2023-04-07T08:26:04;12.50;;;10.40;;
65552;SDS011;52465;51.560;14.368;2023-04-07T08:28:30;11.60;;;10.60;;
65552;SDS011;52465;51.560;14.368;2023-04-07T08:30:56;12.48;;;11.18;;
65552;SDS011;52465;51.560;14.368;2023-04-07T08:33:22;11.82;;;10.60;;
65552;SDS011;52465;51.560;14.368;2023-04-07T08:35:47;11.65;;;10.45;;
65552;SDS011;52465;51.560;14.368;2023-04-07T08:38:13;11.57;;;10.35;;
65552;SDS011;52465;51.560;14.368;2023-04-07T08:40:39;11.98;;;10.70;;
65552;SDS011;52465;51.560;14.368;2023-04-07T08:43:07;11.80;;;10.68;;
65552;SDS011;52465;51.560;14.368;2023-04-07T08:45:33;11.27;;;10.35;;
65552;SDS011;52465;51.560;14.368;2023-04-07T08:48:03;11.38;;;10.38;;
65552;SDS011;52465;51.560;14.368;2023-04-07T08:50:41;11.35;;;10.02;;
65552;SDS011;52465;51.560;14.368;2023-04-07T08:53:08;12.43;;;11.23;;
65552;SDS011;52465;51.560;14.368;2023-04-07T08:55:36;11.48;;;10.38;;
65552;SDS011;52465;51.560;14.368;2023-04-07T08:58:02;11.13;;;10.02;;
65552;SDS011;52465;51.560;14.368;2023-04-07T09:00:28;10.98;;;10.02;;
65552;SDS011;52465;51.560;14.368;2023-04-07T09:02:54;12.20;;;10.18;;
65552;SDS011;52465;51.560;14.368;2023-04-07T09:05:20;10.88;;;9.88;;
65552;SDS011;52465;51.560;14.368;2023-04-07T09:07:49;11.85;;;10.75;;
65552;SDS011;52465;51.560;14.368;2023-04-07T09:10:14;11.30;;;10.30;;
65552;SDS011;52465;51.560;14.368;2023-04-07T09:12:40;12.00;;;10.80;;
65552;SDS011;52465;51.560;14.368;2023-04-07T09:15:06;11.63;;;10.52;;
65552;SDS011;52465;51.560;14.368;2023-04-07T09:17:33;10.95;;;10.07;;
65552;SDS011;52465;51.560;14.368;2023-04-07T09:19:59;11.05;;;10.07;;
65552;SDS011;52465;51.560;14.368;2023-04-07T09:22:33;10.95;;;10.05;;
65552;SDS011;52465;51.560;14.368;2023-04-07T09:27:54;10.38;;;9.48;;
65552;SDS011;52465;51.560;14.368;2023-04-07T09:30:24;10.57;;;9.57;;
65552;SDS011;52465;51.560;14.368;2023-04-07T09:32:50;11.13;;;10.15;;
65552;SDS011;52465;51.560;14.368;2023-04-07T09:35:16;11.52;;;10.43;;
65552;SDS011;52465;51.560;14.368;2023-04-07T09:37:41;11.63;;;10.50;;
65552;SDS011;52465;51.560;14.368;2023-04-07T09:49:25;11.50;;;10.38;;
65552;SDS011;52465;51.560;14.368;2023-04-07T09:51:59;11.27;;;10.23;;
65552;SDS011;52465;51.560;14.368;2023-04-07T09:54:35;11.23;;;10.00;;
65552;SDS011;52465;51.560;14.368;2023-04-07T09:57:06;10.95;;;9.82;;
65552;SDS011;52465;51.560;14.368;2023-04-07T09:59:34;10.70;;;9.70;;
65552;SDS011;52465;51.560;14.368;2023-04-07T10:02:01;11.43;;;10.30;;
65552;SDS011;52465;51.560;14.368;2023-04-07T10:04:27;10.98;;;10.00;;
65552;SDS011;52465;51.560;14.368;2023-04-07T10:06:54;11.57;;;10.38;;
65552;SDS011;52465;51.560;14.368;2023-04-07T10:09:25;10.63;;;9.73;;
65552;SDS011;52465;51.560;14.368;2023-04-07T10:14:21;12.35;;;10.70;;
65552;SDS011;52465;51.560;14.368;2023-04-07T10:16:49;9.70;;;8.88;;
65552;SDS011;52465;51.560;14.368;2023-04-07T10:19:16;9.90;;;9.13;;
65552;SDS011;52465;51.560;14.368;2023-04-07T10:21:44;10.73;;;9.65;;
65552;SDS011;52465;51.560;14.368;2023-04-07T10:27:04;10.52;;;9.63;;
65552;SDS011;52465;51.560;14.368;2023-04-07T10:29:34;9.95;;;9.13;;
65552;SDS011;52465;51.560;14.368;2023-04-07T10:32:06;9.55;;;8.75;;
65552;SDS011;52465;51.560;14.368;2023-04-07T10:37:17;9.98;;;9.07;;
65552;SDS011;52465;51.560;14.368;2023-04-07T10:39:48;9.85;;;8.95;;
65552;SDS011;52465;51.560;14.368;2023-04-07T10:45:03;9.43;;;8.65;;
65552;SDS011;52465;51.560;14.368;2023-04-07T10:47:29;10.88;;;9.77;;
65552;SDS011;52465;51.560;14.368;2023-04-07T10:50:13;8.57;;;7.88;;
65552;SDS011;52465;51.560;14.368;2023-04-07T10:52:40;9.82;;;8.82;;
65552;SDS011;52465;51.560;14.368;2023-04-07T10:55:53;9.05;;;8.20;;
65552;SDS011;52465;51.560;14.368;2023-04-07T11:06:34;9.40;;;8.63;;
65552;SDS011;52465;51.560;14.368;2023-04-07T11:09:01;9.50;;;7.90;;
65552;SDS011;52465;51.560;14.368;2023-04-07T11:11:36;9.57;;;8.35;;
65552;SDS011;52465;51.560;14.368;2023-04-07T11:14:04;9.80;;;8.85;;
65552;SDS011;52465;51.560;14.368;2023-04-07T11:16:34;9.82;;;8.82;;
65552;SDS011;52465;51.560;14.368;2023-04-07T11:21:26;9.23;;;8.50;;
65552;SDS011;52465;51.560;14.368;2023-04-07T11:23:51;9.88;;;8.98;;
65552;SDS011;52465;51.560;14.368;2023-04-07T11:26:17;9.48;;;8.68;;
65552;SDS011;52465;51.560;14.368;2023-04-07T11:28:46;9.00;;;8.20;;
65552;SDS011;52465;51.560;14.368;2023-04-07T11:31:20;9.25;;;8.48;;
65552;SDS011;52465;51.560;14.368;2023-04-07T11:34:11;9.95;;;8.95;;
65552;SDS011;52465;51.560;14.368;2023-04-07T11:36:38;8.68;;;7.93;;
65552;SDS011;52465;51.560;14.368;2023-04-07T11:41:46;10.93;;;9.82;;
65552;SDS011;52465;51.560;14.368;2023-04-07T11:44:14;10.88;;;9.27;;
65552;SDS011;52465;51.560;14.368;2023-04-07T11:46:56;9.82;;;8.70;;
65552;SDS011;52465;51.560;14.368;2023-04-07T11:49:28;10.90;;;9.68;;
65552;SDS011;52465;51.560;14.368;2023-04-07T11:51:57;9.45;;;8.57;;
65552;SDS011;52465;51.560;14.368;2023-04-07T11:54:26;10.50;;;9.50;;
65552;SDS011;52465;51.560;14.368;2023-04-07T11:56:52;11.20;;;10.02;;
65552;SDS011;52465;51.560;14.368;2023-04-07T11:59:23;10.73;;;9.70;;
65552;SDS011;52465;51.560;14.368;2023-04-07T12:01:50;11.02;;;8.90;;
65552;SDS011;52465;51.560;14.368;2023-04-07T12:04:17;11.20;;;10.07;;
65552;SDS011;52465;51.560;14.368;2023-04-07T12:06:43;9.60;;;8.68;;
65552;SDS011;52465;51.560;14.368;2023-04-07T12:09:29;10.95;;;9.95;;
65552;SDS011;52465;51.560;14.368;2023-04-07T12:11:55;10.57;;;9.50;;
65552;SDS011;52465;51.560;14.368;2023-04-07T12:14:22;11.10;;;10.02;;
65552;SDS011;52465;51.560;14.368;2023-04-07T12:16:48;10.07;;;8.90;;
65552;SDS011;52465;51.560;14.368;2023-04-07T12:19:14;10.55;;;9.45;;
65552;SDS011;52465;51.560;14.368;2023-04-07T12:21:40;9.88;;;9.00;;
65552;SDS011;52465;51.560;14.368;2023-04-07T12:24:06;11.02;;;9.18;;
65552;SDS011;52465;51.560;14.368;2023-04-07T12:26:31;11.32;;;10.23;;
65552;SDS011;52465;51.560;14.368;2023-04-07T12:28:57;9.27;;;8.50;;
65552;SDS011;52465;51.560;14.368;2023-04-07T12:31:29;10.13;;;9.20;;
65552;SDS011;52465;51.560;14.368;2023-04-07T12:33:57;10.38;;;9.38;;
65552;SDS011;52465;51.560;14.368;2023-04-07T12:36:25;10.95;;;9.85;;
65552;SDS011;52465;51.560;14.368;2023-04-07T12:38:54;10.88;;;9.63;;
65552;SDS011;52465;51.560;14.368;2023-04-07T12:41:21;10.32;;;9.43;;
65552;SDS011;52465;51.560;14.368;2023-04-07T12:43:47;10.18;;;9.25;;
65552;SDS011;52465;51.560;14.368;2023-04-07T12:46:14;10.93;;;9.88;;
65552;SDS011;52465;51.560;14.368;2023-04-07T12:48:39;11.65;;;10.50;;
65552;SDS011;52465;51.560;14.368;2023-04-07T12:51:06;10.68;;;9.57;;
65552;SDS011;52465;51.560;14.368;2023-04-07T12:53:34;10.50;;;9.60;;
65552;SDS011;52465;51.560;14.368;2023-04-07T12:56:00;10.85;;;9.93;;
65552;SDS011;52465;51.560;14.368;2023-04-07T12:58:25;10.68;;;9.57;;
65552;SDS011;52465;51.560;14.368;2023-04-07T13:00:52;11.15;;;10.13;;
65552;SDS011;52465;51.560;14.368;2023-04-07T13:03:20;11.27;;;9.85;;
65552;SDS011;52465;51.560;14.368;2023-04-07T13:05:45;10.40;;;9.48;;
65552;SDS011;52465;51.560;14.368;2023-04-07T13:08:12;9.70;;;8.90;;
65552;SDS011;52465;51.560;14.368;2023-04-07T13:10:37;10.77;;;9.77;;
65552;SDS011;52465;51.560;14.368;2023-04-07T13:13:04;11.18;;;10.02;;
65552;SDS011;52465;51.560;14.368;2023-04-07T13:15:30;10.85;;;9.77;;
65552;SDS011;52465;51.560;14.368;2023-04-07T13:17:55;10.63;;;9.63;;
65552;SDS011;52465;51.560;14.368;2023-04-07T13:20:24;9.65;;;8.88;;
65552;SDS011;52465;51.560;14.368;2023-04-07T13:25:17;10.60;;;9.63;;
65552;SDS011;52465;51.560;14.368;2023-04-07T13:27:42;9.95;;;9.05;;
65552;SDS011;52465;51.560;14.368;2023-04-07T13:30:08;10.30;;;9.30;;
65552;SDS011;52465;51.560;14.368;2023-04-07T13:32:36;11.40;;;9.90;;
65552;SDS011;52465;51.560;14.368;2023-04-07T13:35:01;11.07;;;10.10;;
65552;SDS011;52465;51.560;14.368;2023-04-07T13:37:28;10.85;;;9.77;;
65552;SDS011;52465;51.560;14.368;2023-04-07T13:39:53;10.70;;;9.75;;
65552;SDS011;52465;51.560;14.368;2023-04-07T13:42:18;10.57;;;9.52;;
65552;SDS011;52465;51.560;14.368;2023-04-07T13:44:45;10.55;;;9.60;;
65552;SDS011;52465;51.560;14.368;2023-04-07T13:47:12;10.65;;;9.65;;
65552;SDS011;52465;51.560;14.368;2023-04-07T13:49:43;11.13;;;10.02;;
65552;SDS011;52465;51.560;14.368;2023-04-07T13:52:09;11.55;;;10.20;;
65552;SDS011;52465;51.560;14.368;2023-04-07T13:54:34;11.55;;;10.27;;
65552;SDS011;52465;51.560;14.368;2023-04-07T13:57:02;11.90;;;10.48;;
65552;SDS011;52465;51.560;14.368;2023-04-07T13:59:28;10.20;;;9.20;;
65552;SDS011;52465;51.560;14.368;2023-04-07T14:01:53;10.65;;;9.63;;
65552;SDS011;52465;51.560;14.368;2023-04-07T14:04:22;10.75;;;9.63;;
65552;SDS011;52465;51.560;14.368;2023-04-07T14:06:48;11.93;;;10.70;;
65552;SDS011;52465;51.560;14.368;2023-04-07T14:09:13;10.85;;;9.75;;
65552;SDS011;52465;51.560;14.368;2023-04-07T14:11:39;11.30;;;10.23;;
65552;SDS011;52465;51.560;14.368;2023-04-07T14:14:05;10.88;;;9.93;;
65552;SDS011;52465;51.560;14.368;2023-04-07T14:16:30;11.15;;;10.10;;
65552;SDS011;52465;51.560;14.368;2023-04-07T14:18:56;11.88;;;9.18;;
65552;SDS011;52465;51.560;14.368;2023-04-07T14:29:50;11.25;;;10.20;;
65552;SDS011;52465;51.560;14.368;2023-04-07T14:32:18;11.13;;;9.93;;
65552;SDS011;52465;51.560;14.368;2023-04-07T14:34:44;12.00;;;9.93;;
65552;SDS011;52465;51.560;14.368;2023-04-07T14:37:10;11.18;;;9.63;;
65552;SDS011;52465;51.560;14.368;2023-04-07T14:39:36;10.60;;;9.50;;
65552;SDS011;52465;51.560;14.368;2023-04-07T14:42:02;10.55;;;9.65;;
65552;SDS011;52465;51.560;14.368;2023-04-07T14:44:29;10.98;;;9.98;;
65552;SDS011;52465;51.560;14.368;2023-04-07T14:46:55;11.02;;;9.88;;
65552;SDS011;52465;51.560;14.368;2023-04-07T14:49:20;11.32;;;10.20;;
65552;SDS011;52465;51.560;14.368;2023-04-07T14:51:46;10.88;;;9.90;;
65552;SDS011;52465;51.560;14.368;2023-04-07T14:54:12;10.63;;;9.63;;
65552;SDS011;52465;51.560;14.368;2023-04-07T14:56:37;11.20;;;10.10;;
65552;SDS011;52465;51.560;14.368;2023-04-07T14:59:04;10.82;;;9.82;;
65552;SDS011;52465;51.560;14.368;2023-04-07T15:01:30;10.25;;;9.35;;
65552;SDS011;52465;51.560;14.368;2023-04-07T15:03:55;11.25;;;10.05;;
65552;SDS011;52465;51.560;14.368;2023-04-07T15:06:22;10.23;;;9.35;;
65552;SDS011;52465;51.560;14.368;2023-04-07T15:08:50;10.85;;;9.73;;
65552;SDS011;52465;51.560;14.368;2023-04-07T15:11:16;10.65;;;9.65;;
65552;SDS011;52465;51.560;14.368;2023-04-07T15:13:42;11.40;;;10.27;;
65552;SDS011;52465;51.560;14.368;2023-04-07T15:16:11;9.85;;;8.93;;
65552;SDS011;52465;51.560;14.368;2023-04-07T15:21:09;10.43;;;9.43;;
65552;SDS011;52465;51.560;14.368;2023-04-07T15:23:35;10.00;;;9.15;;
65552;SDS011;52465;51.560;14.368;2023-04-07T15:26:05;9.82;;;8.93;;
65552;SDS011;52465;51.560;14.368;2023-04-07T15:28:33;10.88;;;9.85;;
65552;SDS011;52465;51.560;14.368;2023-04-07T15:31:02;10.18;;;9.00;;
65552;SDS011;52465;51.560;14.368;2023-04-07T15:33:32;9.65;;;8.75;;
65552;SDS011;52465;51.560;14.368;2023-04-07T15:35:58;11.20;;;9.43;;
65552;SDS011;52465;51.560;14.368;2023-04-07T15:38:26;10.38;;;9.38;;
65552;SDS011;52465;51.560;14.368;2023-04-07T15:40:55;11.13;;;9.60;;
65552;SDS011;52465;51.560;14.368;2023-04-07T15:43:21;10.50;;;9.55;;
65552;SDS011;52465;51.560;14.368;2023-04-07T15:45:46;10.48;;;9.55;;
65552;SDS011;52465;51.560;14.368;2023-04-07T15:48:12;11.60;;;9.57;;
65552;SDS011;52465;51.560;14.368;2023-04-07T15:50:38;10.25;;;9.35;;
65552;SDS011;52465;51.560;14.368;2023-04-07T15:53:03;10.32;;;9.32;;
65552;SDS011;52465;51.560;14.368;2023-04-07T15:55:30;10.02;;;9.23;;
65552;SDS011;52465;51.560;14.368;2023-04-07T15:57:59;9.63;;;8.88;;